createdAt,value
2019-03-10T00:00:16.082Z,896.2
2019-03-10T00:01:16.091Z,897.9
2019-03-10T00:02:16.082Z,899.13
2019-03-10T00:03:16.100Z,900.96
2019-03-10T00:04:16.079Z,902.27
2019-03-10T00:05:16.107Z,903.22
2019-03-10T00:06:16.091Z,904.63
2019-03-10T00:07:16.092Z,905.55
2019-03-10T00:08:16.135Z,906.76
2019-03-10T00:09:16.106Z,907.55
2019-03-10T00:10:16.103Z,908.61
2019-03-10T00:11:16.115Z,909.45
2019-03-10T00:12:16.086Z,910.23
2019-03-10T00:13:16.130Z,911.01
2019-03-10T00:14:16.099Z,911.93
2019-03-10T00:15:16.109Z,912.57
2019-03-10T00:16:16.150Z,912.87
2019-03-10T00:17:16.087Z,913.95
2019-03-10T00:18:16.093Z,914.69
2019-03-10T00:19:16.171Z,915.3
2019-03-10T00:20:16.105Z,916.05
2019-03-10T00:21:16.111Z,916.43
2019-03-10T00:22:16.096Z,916.93
2019-03-10T00:23:16.124Z,917.37
2019-03-10T00:24:16.134Z,918.16
2019-03-10T00:25:16.390Z,918.71
2019-03-10T00:26:16.161Z,919.08
2019-03-10T00:27:16.133Z,919.36
2019-03-10T00:28:16.148Z,919.69
2019-03-10T00:29:16.095Z,919.95
2019-03-10T00:30:16.108Z,920.46
2019-03-10T00:31:16.270Z,920.42
2019-03-10T00:32:16.122Z,920.37
2019-03-10T00:33:16.118Z,920.87
2019-03-10T00:34:16.836Z,920.92
2019-03-10T00:35:16.136Z,921.27
2019-03-10T00:36:16.143Z,921.28
2019-03-10T00:37:16.150Z,921.21
2019-03-10T00:38:16.168Z,921.87
2019-03-10T00:39:16.129Z,922.42
2019-03-10T00:40:16.137Z,923.05
2019-03-10T00:41:16.145Z,922.84
2019-03-10T00:42:16.150Z,923.15
2019-03-10T00:43:16.128Z,923.38
2019-03-10T00:44:16.163Z,923.42
2019-03-10T00:45:16.172Z,924.43
2019-03-10T00:46:16.144Z,924.84
2019-03-10T00:47:16.197Z,925.41
2019-03-10T00:48:16.158Z,925.85
2019-03-10T00:49:16.131Z,926.06
2019-03-10T00:50:16.177Z,926.08
2019-03-10T00:51:16.142Z,927.09
2019-03-10T00:52:16.191Z,927.01
2019-03-10T00:53:16.190Z,927.48
2019-03-10T00:54:16.158Z,927.7
2019-03-10T00:55:16.153Z,928.08
2019-03-10T00:56:16.210Z,928.25
2019-03-10T00:57:16.163Z,928.85
2019-03-10T00:58:16.171Z,929
2019-03-10T00:59:16.162Z,929.68
2019-03-10T01:00:16.170Z,930.13
2019-03-10T01:01:16.203Z,930.28
2019-03-10T01:02:16.177Z,931.15
2019-03-10T01:03:16.174Z,931.75
2019-03-10T01:04:16.192Z,932.19
2019-03-10T01:05:16.195Z,932.34
2019-03-10T01:06:16.195Z,932.95
2019-03-10T01:07:16.210Z,933.04
2019-03-10T01:08:16.187Z,933.1
2019-03-10T01:09:16.201Z,933.68
2019-03-10T01:10:16.184Z,934.51
2019-03-10T01:11:16.175Z,934.02
2019-03-10T01:12:16.175Z,934.43
2019-03-10T01:13:16.176Z,934.38
2019-03-10T01:14:16.191Z,934.37
2019-03-10T01:15:16.172Z,934.65
2019-03-10T01:16:16.177Z,934.85
2019-03-10T01:17:16.207Z,934.9
2019-03-10T01:18:16.233Z,934.52
2019-03-10T01:19:16.196Z,935.2
2019-03-10T01:20:16.200Z,934.9
2019-03-10T01:21:16.223Z,935.16
2019-03-10T01:22:16.179Z,935.75
2019-03-10T01:23:16.216Z,935.47
2019-03-10T01:24:16.227Z,935.56
2019-03-10T01:25:16.200Z,935.83
2019-03-10T01:26:16.219Z,935.86
2019-03-10T01:27:16.217Z,935.85
2019-03-10T01:28:16.232Z,935.78
2019-03-10T01:29:16.222Z,935.7
2019-03-10T01:30:16.242Z,935.81
2019-03-10T01:31:16.258Z,935.5
2019-03-10T01:32:16.201Z,935.72
2019-03-10T01:33:16.224Z,935.89
2019-03-10T01:34:16.206Z,936.17
2019-03-10T01:35:16.196Z,935.88
2019-03-10T01:36:16.321Z,936.38
2019-03-10T01:37:16.205Z,936.1
2019-03-10T01:38:16.210Z,936.3
2019-03-10T01:39:16.252Z,935.98
2019-03-10T01:40:16.215Z,936.13
2019-03-10T01:41:16.438Z,936.13
2019-03-10T01:42:16.243Z,936.01
2019-03-10T01:43:16.246Z,935.93
2019-03-10T01:44:16.222Z,936.2
2019-03-10T01:45:16.265Z,936
2019-03-10T01:46:16.243Z,936.06
2019-03-10T01:47:16.222Z,935.92
2019-03-10T01:48:16.215Z,935.67
2019-03-10T01:49:16.261Z,935.96
2019-03-10T01:50:16.225Z,935.95
2019-03-10T01:51:16.243Z,936.26
2019-03-10T01:52:16.292Z,936.29
2019-03-10T01:53:25.161Z,936.53
2019-03-10T01:54:16.261Z,936.01
2019-03-10T01:55:16.239Z,936.95
2019-03-10T01:56:16.256Z,936.18
2019-03-10T01:57:16.252Z,936.93
2019-03-10T01:58:16.228Z,936.77
2019-03-10T01:59:16.256Z,936.84
2019-03-10T02:00:16.263Z,937.52
2019-03-10T02:01:16.265Z,937.25
2019-03-10T02:02:24.774Z,937.77
2019-03-10T02:03:16.270Z,937.48
2019-03-10T02:04:16.251Z,937.66
2019-03-10T02:05:16.273Z,938.1
2019-03-10T02:06:16.254Z,937.83
2019-03-10T02:07:16.281Z,938.42
2019-03-10T02:08:16.260Z,938.3
2019-03-10T02:09:16.264Z,938.99
2019-03-10T02:10:16.291Z,939.18
2019-03-10T02:11:16.275Z,939.33
2019-03-10T02:12:16.267Z,939.53
2019-03-10T02:13:16.301Z,939.73
2019-03-10T02:14:16.297Z,940.03
2019-03-10T02:15:16.264Z,939.58
2019-03-10T02:16:16.282Z,939.87
2019-03-10T02:17:16.296Z,940.09
2019-03-10T02:18:16.302Z,939.98
2019-03-10T02:19:16.286Z,940.27
2019-03-10T02:20:16.287Z,940.52
2019-03-10T02:21:16.294Z,940.92
2019-03-10T02:22:16.278Z,941.34
2019-03-10T02:23:16.265Z,941.81
2019-03-10T02:24:23.595Z,941.81
2019-03-10T02:25:18.175Z,941.99
2019-03-10T02:26:16.294Z,942.41
2019-03-10T02:27:16.327Z,942.41
2019-03-10T02:28:16.297Z,943.02
2019-03-10T02:29:16.304Z,943.23
2019-03-10T02:30:16.288Z,943.16
2019-03-10T02:31:16.484Z,943.38
2019-03-10T02:32:16.346Z,943.82
2019-03-10T02:33:16.318Z,943.97
2019-03-10T02:34:16.318Z,944.06
2019-03-10T02:35:16.303Z,944.25
2019-03-10T02:36:16.309Z,944.44
2019-03-10T02:37:16.317Z,943.8
2019-03-10T02:38:16.319Z,944.3
2019-03-10T02:39:16.350Z,944.8
2019-03-10T02:40:16.316Z,944.65
2019-03-10T02:41:16.316Z,945.08
2019-03-10T02:42:16.319Z,945.44
2019-03-10T02:43:16.325Z,945.66
2019-03-10T02:44:16.324Z,945.64
2019-03-10T02:45:16.340Z,945.36
2019-03-10T02:46:16.379Z,945.69
2019-03-10T02:47:16.323Z,945.54
2019-03-10T02:48:16.331Z,945.93
2019-03-10T02:49:16.328Z,946.24
2019-03-10T02:50:16.359Z,946.43
2019-03-10T02:51:16.356Z,946.8
2019-03-10T02:52:16.365Z,946.12
2019-03-10T02:53:16.337Z,946.58
2019-03-10T02:54:16.337Z,945.87
2019-03-10T02:55:16.325Z,945.75
2019-03-10T02:56:16.333Z,945.67
2019-03-10T02:57:16.359Z,945.59
2019-03-10T02:58:16.333Z,946.03
2019-03-10T02:59:16.346Z,945.51
2019-03-10T03:00:16.336Z,945.37
2019-03-10T03:01:16.353Z,945.3
2019-03-10T03:02:16.344Z,945.03
2019-03-10T03:03:16.365Z,945.56
2019-03-10T03:04:16.344Z,945.05
2019-03-10T03:05:16.347Z,945.53
2019-03-10T03:06:16.386Z,945.44
2019-03-10T03:07:16.369Z,945.45
2019-03-10T03:08:16.995Z,945.32
2019-03-10T03:09:16.349Z,945.25
2019-03-10T03:10:16.373Z,945.22
2019-03-10T03:11:16.378Z,945.32
2019-03-10T03:12:16.386Z,944.58
2019-03-10T03:13:16.355Z,944.57
2019-03-10T03:14:16.410Z,944.27
2019-03-10T03:15:16.361Z,944.24
2019-03-10T03:16:16.362Z,944.63
2019-03-10T03:17:16.388Z,944.28
2019-03-10T03:18:16.362Z,943.96
2019-03-10T03:19:17.849Z,944.29
2019-03-10T03:20:16.394Z,944.12
2019-03-10T03:21:16.359Z,943.73
2019-03-10T03:22:16.362Z,943.57
2019-03-10T03:23:16.365Z,943.55
2019-03-10T03:24:16.371Z,942.94
2019-03-10T03:25:16.392Z,942.58
2019-03-10T03:26:16.393Z,942.57
2019-03-10T03:27:16.393Z,942.79
2019-03-10T03:28:16.429Z,942.3
2019-03-10T03:29:16.365Z,941.87
2019-03-10T03:30:16.507Z,942.13
2019-03-10T03:31:17.211Z,941.34
2019-03-10T03:32:16.393Z,941.56
2019-03-10T03:33:16.389Z,940.94
2019-03-10T03:34:16.412Z,941.25
2019-03-10T03:35:16.380Z,940.89
2019-03-10T03:36:16.422Z,940.44
2019-03-10T03:37:16.414Z,940.14
2019-03-10T03:38:16.428Z,939.95
2019-03-10T03:39:16.398Z,939.73
2019-03-10T03:40:16.406Z,939.58
2019-03-10T03:44:45.014Z,939.04
2019-03-10T03:45:45.042Z,938.79
2019-03-10T03:46:44.995Z,938.67
2019-03-10T03:47:45.034Z,938.22
2019-03-10T03:48:45.002Z,938.29
2019-03-10T03:49:45.046Z,938.43
2019-03-10T03:50:45.017Z,938.44
2019-03-10T03:51:45.007Z,938.35
2019-03-10T03:52:45.014Z,938.79
2019-03-10T03:57:14.046Z,937.79
2019-03-10T03:58:14.073Z,937.87
2019-03-10T03:59:14.046Z,937.82
2019-03-10T04:00:14.040Z,937.63
2019-03-10T04:01:14.064Z,937.37
2019-03-10T04:02:14.063Z,937.56
2019-03-10T04:03:14.034Z,937.42
2019-03-10T04:09:54.151Z,935.84
2019-03-10T04:10:54.096Z,935.84
2019-03-10T04:11:54.063Z,935.7
2019-03-10T04:12:54.132Z,935.37
2019-03-10T04:13:54.074Z,935.23
2019-03-10T04:14:54.182Z,935.2
2019-03-10T04:15:54.089Z,934.54
2019-03-10T04:16:54.070Z,934.72
2019-03-10T04:17:54.060Z,934.22
2019-03-10T04:18:54.071Z,934.26
2019-03-10T04:19:54.055Z,934.5
2019-03-10T04:20:54.069Z,933.92
2019-03-10T04:21:54.164Z,934.21
2019-03-10T04:22:54.082Z,934.11
2019-03-10T04:23:54.087Z,934.24
2019-03-10T04:24:54.077Z,933.69
2019-03-10T04:25:54.096Z,934.03
2019-03-10T04:26:54.087Z,933.73
2019-03-10T04:27:54.070Z,934.21
2019-03-10T04:28:54.133Z,934.04
2019-03-10T04:29:54.107Z,934.28
2019-03-10T04:30:54.113Z,933.99
2019-03-10T04:31:54.315Z,934.29
2019-03-10T04:32:54.071Z,934.45
2019-03-10T04:33:54.206Z,934.81
2019-03-10T04:34:54.082Z,933.95
2019-03-10T04:35:54.116Z,934.64
2019-03-10T04:36:54.084Z,934.43
2019-03-10T04:37:54.098Z,934.64
2019-03-10T04:38:54.097Z,934.69
2019-03-10T04:39:54.105Z,934.6
2019-03-10T04:40:54.136Z,934.97
2019-03-10T04:41:54.118Z,934.91
2019-03-10T04:42:54.093Z,934.98
2019-03-10T04:43:54.087Z,934.94
2019-03-10T04:44:54.120Z,935.06
2019-03-10T04:45:54.188Z,935.09
2019-03-10T04:46:54.095Z,935.09
2019-03-10T04:47:54.125Z,935.13
2019-03-10T04:48:54.165Z,935.47
2019-03-10T04:49:54.106Z,935.32
2019-03-10T04:50:54.124Z,935.34
2019-03-10T04:51:54.138Z,935.44
2019-03-10T04:52:54.129Z,935.17
2019-03-10T04:53:54.121Z,935.02
2019-03-10T04:58:23.241Z,934.85
2019-03-10T04:59:23.205Z,934.8
2019-03-10T05:00:23.188Z,934.46
2019-03-10T05:01:23.220Z,934.12
2019-03-10T05:02:23.227Z,934
2019-03-10T05:03:23.201Z,934
2019-03-10T05:04:23.206Z,933.55
2019-03-10T05:05:23.249Z,933.73
2019-03-10T05:06:23.211Z,933.4
2019-03-10T05:07:23.185Z,933.46
2019-03-10T05:08:23.244Z,932.35
2019-03-10T05:09:23.243Z,931.88
2019-03-10T05:10:25.044Z,930.93
2019-03-10T05:11:23.202Z,930.07
2019-03-10T05:12:23.232Z,929.04
2019-03-10T05:13:23.200Z,927.81
2019-03-10T05:14:23.243Z,926.43
2019-03-10T05:15:23.253Z,925.41
2019-03-10T05:16:23.223Z,925.06
2019-03-10T05:17:23.265Z,924.55
2019-03-10T05:18:23.207Z,924.31
2019-03-10T05:19:23.236Z,924.04
2019-03-10T05:20:23.246Z,923.72
2019-03-10T05:21:23.255Z,923.49
2019-03-10T05:22:23.257Z,922.7
2019-03-10T05:23:23.375Z,922.49
2019-03-10T05:24:23.222Z,921.92
2019-03-10T05:25:23.378Z,921.56
2019-03-10T05:26:23.245Z,921.29
2019-03-10T05:27:23.239Z,921.09
2019-03-10T05:28:23.246Z,920.67
2019-03-10T05:29:23.230Z,920.08
2019-03-10T05:30:23.249Z,920.19
2019-03-10T05:31:23.260Z,919.68
2019-03-10T05:32:23.241Z,919.51
2019-03-10T05:33:23.270Z,918.98
2019-03-10T05:34:23.233Z,918.49
2019-03-10T05:41:01.852Z,915.78
2019-03-10T05:42:01.991Z,915.78
2019-03-10T05:43:01.851Z,914.91
2019-03-10T05:44:01.879Z,914.2
2019-03-10T05:45:01.895Z,913.15
2019-03-10T05:46:01.780Z,912.82
2019-03-10T05:47:01.790Z,912.66
2019-03-10T05:48:01.833Z,911.55
2019-03-10T05:49:01.847Z,911.08
2019-03-10T05:50:01.839Z,910.63
2019-03-10T05:51:01.813Z,910.53
2019-03-10T05:52:01.889Z,909.97
2019-03-10T05:53:01.794Z,910.03
2019-03-10T05:54:01.903Z,909.32
2019-03-10T05:55:01.828Z,909.09
2019-03-10T05:56:01.892Z,908.13
2019-03-10T05:57:01.851Z,908.42
2019-03-10T05:58:01.889Z,907.67
2019-03-10T05:59:01.847Z,906.81
2019-03-10T06:00:01.817Z,905.73
2019-03-10T06:01:01.828Z,904.89
2019-03-10T06:02:01.841Z,903.49
2019-03-10T06:03:01.997Z,902.77
2019-03-10T06:04:01.867Z,901.85
2019-03-10T06:05:01.952Z,900.5
2019-03-10T06:06:01.850Z,899.82
2019-03-10T06:07:01.851Z,898.94
2019-03-10T06:08:01.875Z,897.97
2019-03-10T06:09:01.892Z,896.95
2019-03-10T06:10:01.891Z,896.45
2019-03-10T06:11:01.872Z,894.68
2019-03-10T06:12:01.899Z,894.05
2019-03-10T06:13:01.870Z,892.99
2019-03-10T06:14:01.872Z,891.75
2019-03-10T06:20:41.542Z,886.44
2019-03-10T06:21:41.520Z,885.5
2019-03-10T06:22:41.524Z,884.54
2019-03-10T06:23:41.509Z,883.77
2019-03-10T06:24:41.560Z,882.68
2019-03-10T06:25:41.510Z,882.05
2019-03-10T06:26:41.543Z,880.9
2019-03-10T06:27:41.515Z,880.16
2019-03-10T06:28:41.512Z,879.62
2019-03-10T06:29:41.527Z,878.8
2019-03-10T06:30:41.540Z,878.91
2019-03-10T06:31:41.536Z,879.08
2019-03-10T06:32:41.539Z,878.46
2019-03-10T06:33:41.535Z,877.92
2019-03-10T06:34:41.539Z,877.82
2019-03-10T06:35:41.533Z,877.42
2019-03-10T06:36:41.566Z,876.9
2019-03-10T06:37:41.544Z,876.97
2019-03-10T06:38:41.525Z,876.68
2019-03-10T06:39:41.556Z,875.63
2019-03-10T06:40:41.552Z,875.15
2019-03-10T06:41:41.542Z,875.17
2019-03-10T06:42:41.544Z,874.57
2019-03-10T06:43:41.553Z,874.69
2019-03-10T06:44:41.561Z,873.79
2019-03-10T06:45:41.550Z,873.53
2019-03-10T06:46:41.538Z,872.93
2019-03-10T06:47:41.575Z,872.69
2019-03-10T06:48:41.561Z,872.68
2019-03-10T06:49:41.535Z,873.18
2019-03-10T06:50:41.565Z,872.27
2019-03-10T06:51:41.548Z,872.18
2019-03-10T07:02:41.441Z,871.45
2019-03-10T07:03:41.395Z,871.43
2019-03-10T07:04:41.395Z,871.89
2019-03-10T07:05:41.409Z,871.31
2019-03-10T07:06:41.396Z,871.14
2019-03-10T07:07:41.414Z,870.88
2019-03-10T07:08:41.409Z,871
2019-03-10T07:09:41.428Z,871.36
2019-03-10T07:10:41.426Z,871.42
2019-03-10T07:11:41.803Z,871.36
2019-03-10T07:12:41.437Z,871.63
2019-03-10T07:19:21.072Z,870.44
2019-03-10T07:20:21.041Z,869.66
2019-03-10T07:21:21.025Z,869.2
2019-03-10T07:22:21.069Z,868.76
2019-03-10T07:23:21.065Z,867.97
2019-03-10T07:24:21.037Z,867.36
2019-03-10T07:25:21.019Z,867.5
2019-03-10T07:26:21.048Z,866.66
2019-03-10T07:27:21.043Z,866.14
2019-03-10T07:28:21.167Z,865.99
2019-03-10T07:29:21.034Z,865.68
2019-03-10T07:30:21.057Z,865.41
2019-03-10T07:31:21.067Z,865.28
2019-03-10T07:32:21.074Z,865.05
2019-03-10T07:33:21.059Z,864.46
2019-03-10T07:34:21.039Z,864.78
2019-03-10T07:35:21.067Z,864.66
2019-03-10T07:36:21.045Z,864.12
2019-03-10T07:37:21.084Z,863.77
2019-03-10T07:41:50.991Z,862.54
2019-03-10T07:42:50.983Z,863.05
2019-03-10T07:43:50.965Z,862.71
2019-03-10T07:44:51.069Z,862.29
2019-03-10T07:45:50.971Z,861.56
2019-03-10T07:46:50.979Z,861.38
2019-03-10T07:47:50.985Z,861.11
2019-03-10T07:48:51.005Z,860.7
2019-03-10T07:49:51.140Z,860.95
2019-03-10T07:50:50.969Z,860.59
2019-03-10T07:51:51.013Z,860.52
2019-03-10T07:52:50.965Z,860.01
2019-03-10T07:53:50.986Z,859.71
2019-03-10T07:54:51.000Z,858.56
2019-03-10T07:55:50.997Z,857.47
2019-03-10T07:56:51.002Z,856.5
2019-03-10T07:57:51.004Z,855.96
2019-03-10T07:58:51.016Z,855.93
2019-03-10T08:01:10.280Z,854.8
2019-03-10T08:02:10.290Z,854.52
2019-03-10T08:03:10.314Z,854.48
2019-03-10T08:04:10.256Z,854.61
2019-03-10T08:05:10.291Z,853.93
2019-03-10T08:06:10.254Z,853.83
2019-03-10T08:07:10.323Z,853.62
2019-03-10T08:08:10.335Z,853.1
2019-03-10T08:09:10.272Z,852.52
2019-03-10T08:10:10.337Z,852.6
2019-03-10T08:11:10.277Z,852.11
2019-03-10T08:15:40.383Z,851.29
2019-03-10T08:16:40.336Z,851.53
2019-03-10T08:17:40.330Z,851.77
2019-03-10T08:18:40.316Z,851.57
2019-03-10T08:19:40.355Z,851.55
2019-03-10T08:20:40.354Z,851.06
2019-03-10T08:21:40.337Z,851.98
2019-03-10T08:22:40.365Z,851.59
2019-03-10T08:23:40.436Z,852.37
2019-03-10T08:24:40.326Z,852.58
2019-03-10T08:25:40.342Z,853.45
2019-03-10T08:26:40.336Z,854.09
2019-03-10T08:27:40.360Z,854.46
2019-03-10T08:28:40.342Z,855.64
2019-03-10T08:29:40.326Z,856.12
2019-03-10T08:30:40.334Z,856.16
2019-03-10T08:31:40.358Z,856.6
2019-03-10T08:32:40.363Z,856.05
2019-03-10T08:33:40.383Z,856.99
2019-03-10T08:34:40.356Z,856.68
2019-03-10T08:35:40.449Z,856.83
2019-03-10T08:36:40.353Z,857.14
2019-03-10T08:37:40.373Z,856.86
2019-03-10T08:38:40.365Z,856.34
2019-03-10T08:39:40.374Z,856.47
2019-03-10T08:40:40.380Z,856.59
2019-03-10T08:41:40.376Z,856.5
2019-03-10T08:42:40.468Z,856.68
2019-03-10T08:43:40.357Z,856.99
2019-03-10T08:44:40.390Z,857.58
2019-03-10T08:45:40.515Z,858.4
2019-03-10T08:46:40.381Z,858.69
2019-03-10T08:47:40.391Z,858.77
2019-03-10T08:48:40.413Z,859.42
2019-03-10T08:49:44.953Z,859.4
2019-03-10T08:50:40.415Z,859.76
2019-03-10T08:51:40.382Z,859.24
2019-03-10T08:52:40.376Z,859.42
2019-03-10T08:53:40.428Z,859.53
2019-03-10T08:54:40.371Z,859.44
2019-03-10T08:55:40.407Z,859.43
2019-03-10T08:56:40.385Z,859.15
2019-03-10T08:57:40.440Z,859.61
2019-03-10T08:58:40.405Z,859.61
2019-03-10T08:59:40.438Z,860.41
2019-03-10T09:00:40.415Z,861.34
2019-03-10T09:01:40.771Z,862.1
2019-03-10T09:02:40.402Z,862.13
2019-03-10T09:03:40.430Z,863.27
2019-03-10T09:04:40.381Z,863.85
2019-03-10T09:05:40.442Z,864.38
2019-03-10T09:06:40.448Z,864.96
2019-03-10T09:07:40.417Z,865.5
2019-03-10T09:08:40.405Z,866.43
2019-03-10T09:09:40.438Z,867.24
2019-03-10T09:10:40.435Z,868.43
2019-03-10T09:11:40.445Z,869.77
2019-03-10T09:12:40.490Z,870.71
2019-03-10T09:13:40.462Z,872.29
2019-03-10T09:14:40.400Z,873.99
2019-03-10T09:15:41.204Z,875.69
2019-03-10T09:16:40.416Z,877.24
2019-03-10T09:17:40.420Z,879.26
2019-03-10T09:18:40.448Z,881.15
2019-03-10T09:19:40.434Z,882.46
2019-03-10T09:20:40.444Z,884.11
2019-03-10T09:21:40.453Z,885.72
2019-03-10T09:22:40.455Z,886.97
2019-03-10T09:23:40.583Z,888.56
2019-03-10T09:24:40.428Z,889.44
2019-03-10T09:25:40.444Z,890.34
2019-03-10T09:26:40.438Z,891.83
2019-03-10T09:27:40.435Z,892.82
2019-03-10T09:28:40.432Z,893.49
2019-03-10T09:29:40.500Z,894.34
2019-03-10T09:30:40.449Z,895.82
2019-03-10T09:31:40.580Z,897.2
2019-03-10T09:32:40.520Z,898.62
2019-03-10T09:33:40.515Z,899.94
2019-03-10T09:34:40.464Z,902.15
2019-03-10T09:35:40.606Z,903.63
2019-03-10T09:36:40.463Z,905.34
2019-03-10T09:37:40.509Z,906.7
2019-03-10T09:38:40.533Z,908.47
2019-03-10T09:39:40.450Z,909.46
2019-03-10T09:40:40.484Z,911.22
2019-03-10T09:41:40.487Z,912.6
2019-03-10T09:42:40.483Z,913.77
2019-03-10T09:43:40.473Z,915.12
2019-03-10T09:44:40.540Z,916.53
2019-03-10T09:51:20.902Z,924.74
2019-03-10T09:52:20.847Z,925.79
2019-03-10T09:53:20.870Z,926.93
2019-03-10T09:54:20.863Z,928.2
2019-03-10T09:55:20.778Z,928.97
2019-03-10T09:56:20.778Z,929.95
2019-03-10T09:57:20.875Z,930.55
2019-03-10T09:58:20.735Z,932.18
2019-03-10T09:59:20.786Z,933.14
2019-03-10T10:00:20.978Z,933.89
2019-03-10T10:01:20.949Z,934.96
2019-03-10T10:02:20.786Z,935.56
2019-03-10T10:03:20.963Z,936.74
2019-03-10T10:04:20.833Z,937.33
2019-03-10T10:05:20.923Z,938.71
2019-03-10T10:06:20.924Z,939.19
2019-03-10T10:07:21.050Z,940.22
2019-03-10T10:08:20.916Z,941.22
2019-03-10T10:09:21.049Z,942.34
2019-03-10T10:10:21.020Z,943.45
2019-03-10T10:11:21.025Z,945.05
2019-03-10T10:12:21.032Z,946
2019-03-10T10:13:21.049Z,947.42
2019-03-10T10:14:21.048Z,949.2
2019-03-10T10:15:21.027Z,950.74
2019-03-10T10:16:20.925Z,952.38
2019-03-10T10:17:20.959Z,954.53
2019-03-10T10:18:21.036Z,956.11
2019-03-10T10:19:21.099Z,957.81
2019-03-10T10:20:21.079Z,960.37
2019-03-10T10:21:21.162Z,962.19
2019-03-10T10:22:20.909Z,964.19
2019-03-10T10:23:21.206Z,966.15
2019-03-10T10:24:20.958Z,968.05
2019-03-10T10:25:21.007Z,969.96
2019-03-10T10:26:21.097Z,971.69
2019-03-10T10:28:21.196Z,975.96
2019-03-10T10:29:21.086Z,977.64
2019-03-10T10:30:21.046Z,979.89
2019-03-10T10:31:21.123Z,981.98
2019-03-10T10:32:21.119Z,983.8
2019-03-10T10:33:21.329Z,985.47
2019-03-10T10:34:21.137Z,987.34
2019-03-10T10:35:21.207Z,989.16
2019-03-10T10:36:21.160Z,990.93
2019-03-10T10:37:21.147Z,992.58
2019-03-10T10:38:21.162Z,994.34
2019-03-10T10:39:21.210Z,996
2019-03-10T10:40:21.139Z,997.37
2019-03-10T10:41:21.121Z,998.79
2019-03-10T10:42:21.180Z,999.72
2019-03-10T10:43:21.424Z,1001.33
2019-03-10T10:44:21.396Z,1002.45
2019-03-10T10:45:21.140Z,1003.5
2019-03-10T10:46:21.148Z,1005.14
2019-03-10T10:47:21.113Z,1006.19
2019-03-10T10:48:21.321Z,1007.24
2019-03-10T10:49:21.133Z,1007.53
2019-03-10T10:50:21.270Z,1008.21
2019-03-10T10:51:21.161Z,1008.88
2019-03-10T10:52:21.164Z,1009.35
2019-03-10T10:53:21.575Z,1010.13
2019-03-10T10:54:21.154Z,1010.66
2019-03-10T10:55:21.163Z,1011
2019-03-10T10:56:21.236Z,1011.67
2019-03-10T10:57:21.233Z,1012.11
2019-03-10T10:58:21.300Z,1012.39
2019-03-10T10:59:21.141Z,1012.87
2019-03-10T11:00:21.184Z,1014.21
2019-03-10T11:01:21.148Z,1014.97
2019-03-10T11:02:21.081Z,1016.44
2019-03-10T11:03:22.463Z,1018.62
2019-03-10T11:04:21.063Z,1021.24
2019-03-10T11:05:21.136Z,1023.49
2019-03-10T11:06:21.047Z,1025.59
2019-03-10T11:07:21.035Z,1027.51
2019-03-10T11:08:20.975Z,1029.67
2019-03-10T11:09:21.215Z,1031.08
2019-03-10T11:10:21.155Z,1032.63
2019-03-10T11:11:21.192Z,1033.92
2019-03-10T11:12:21.222Z,1034.88
2019-03-10T11:13:21.749Z,1035.55
2019-03-10T11:14:21.153Z,1037.01
2019-03-10T11:15:21.076Z,1039.35
2019-03-10T11:16:21.202Z,1040.93
2019-03-10T11:17:21.167Z,1041.81
2019-03-10T11:18:21.157Z,1042.75
2019-03-10T11:19:21.101Z,1043.95
2019-03-10T11:20:21.112Z,1044.64
2019-03-10T11:21:21.228Z,1045.93
2019-03-10T11:22:21.182Z,1046.92
2019-03-10T11:23:21.252Z,1049.84
2019-03-10T11:24:21.217Z,1050.92
2019-03-10T11:25:21.370Z,1051.37
2019-03-10T11:26:21.229Z,1053.27
2019-03-10T11:27:21.222Z,1057.77
2019-03-10T11:28:21.398Z,1060.27
2019-03-10T11:29:21.137Z,1063.02
2019-03-10T11:30:21.139Z,1064
2019-03-10T11:31:21.321Z,1064.09
2019-03-10T11:32:23.057Z,1064.62
2019-03-10T11:34:21.118Z,1067.28
2019-03-10T11:35:21.230Z,1067.94
2019-03-10T11:36:21.243Z,1068.02
2019-03-10T11:37:21.301Z,1068.25
2019-03-10T11:38:21.374Z,1068.36
2019-03-10T11:39:21.200Z,1068.83
2019-03-10T11:40:21.229Z,1068.68
2019-03-10T11:41:21.257Z,1068.89
2019-03-10T11:42:21.243Z,1068.74
2019-03-10T11:43:22.766Z,1069.13
2019-03-10T11:44:21.288Z,1068.85
2019-03-10T11:45:21.345Z,1069.06
2019-03-10T11:46:21.246Z,1069.1
2019-03-10T11:47:21.145Z,1069.02
2019-03-10T11:48:21.253Z,1068.45
2019-03-10T11:49:21.202Z,1068.01
2019-03-10T11:50:21.241Z,1068.05
2019-03-10T11:51:21.232Z,1068.29
2019-03-10T11:52:21.316Z,1068.53
2019-03-10T11:53:21.463Z,1069
2019-03-10T11:54:21.223Z,1070.27
2019-03-10T11:55:21.332Z,1069.99
2019-03-10T11:56:21.308Z,1069.56
2019-03-10T11:57:21.390Z,1069.08
2019-03-10T11:58:21.263Z,1068.68
2019-03-10T11:59:21.365Z,1068.52
2019-03-10T12:00:21.318Z,1068.38
2019-03-10T12:01:21.311Z,1068.25
2019-03-10T12:02:21.360Z,1068.51
2019-03-10T12:03:21.405Z,1069.49
2019-03-10T12:04:21.281Z,1072.38
2019-03-10T12:05:21.373Z,1073.44
2019-03-10T12:06:21.359Z,1074.69
2019-03-10T12:07:21.343Z,1075.6
2019-03-10T12:08:21.460Z,1076.06
2019-03-10T12:09:21.363Z,1076.77
2019-03-10T12:10:21.645Z,1077.01
2019-03-10T12:11:21.363Z,1077.28
2019-03-10T12:12:21.425Z,1077.32
2019-03-10T12:13:21.486Z,1077.03
2019-03-10T12:14:21.305Z,1076.65
2019-03-10T12:15:21.517Z,1076.06
2019-03-10T12:16:21.365Z,1076.03
2019-03-10T12:17:21.301Z,1075.3
2019-03-10T12:18:21.489Z,1074.73
2019-03-10T12:19:21.301Z,1074.84
2019-03-10T12:20:21.338Z,1075.01
2019-03-10T12:21:21.345Z,1075.25
2019-03-10T12:22:25.088Z,1075.08
2019-03-10T12:23:21.420Z,1074.94
2019-03-10T12:24:21.363Z,1075.32
2019-03-10T12:25:21.293Z,1075.1
2019-03-10T12:26:21.340Z,1075.14
2019-03-10T12:27:21.376Z,1075.51
2019-03-10T12:28:21.475Z,1075.11
2019-03-10T12:29:21.397Z,1075.4
2019-03-10T12:30:21.331Z,1075.26
2019-03-10T12:31:21.390Z,1074.72
2019-03-10T12:32:21.372Z,1074.45
2019-03-10T12:33:21.384Z,1074.14
2019-03-10T12:34:21.376Z,1073.51
2019-03-10T12:35:21.369Z,1072.9
2019-03-10T12:36:21.418Z,1072.32
2019-03-10T12:37:21.429Z,1071.61
2019-03-10T12:38:21.385Z,1070.64
2019-03-10T12:39:21.571Z,1069.78
2019-03-10T12:40:21.393Z,1068.65
2019-03-10T12:41:21.374Z,1067.35
2019-03-10T12:42:21.391Z,1065.69
2019-03-10T12:43:21.375Z,1064.36
2019-03-10T12:44:21.398Z,1062.18
2019-03-10T12:45:21.382Z,1060.44
2019-03-10T12:46:21.386Z,1057.92
2019-03-10T12:47:21.422Z,1056.36
2019-03-10T12:48:21.508Z,1054.25
2019-03-10T12:49:21.379Z,1052.86
2019-03-10T12:50:21.407Z,1051.21
2019-03-10T12:51:22.095Z,1049.72
2019-03-10T12:52:21.426Z,1049.05
2019-03-10T12:53:21.434Z,1047.68
2019-03-10T12:54:21.446Z,1046.69
2019-03-10T12:55:21.443Z,1045.49
2019-03-10T12:56:21.451Z,1044.42
2019-03-10T12:57:21.442Z,1043.4
2019-03-10T12:58:21.489Z,1042.97
2019-03-10T12:59:21.455Z,1042.65
2019-03-10T13:00:22.839Z,1042.71
2019-03-10T13:01:21.439Z,1043.12
2019-03-10T13:02:21.475Z,1044.75
2019-03-10T13:03:21.558Z,1046.4
2019-03-10T13:04:21.451Z,1047.97
2019-03-10T13:05:21.502Z,1048.39
2019-03-10T13:06:21.423Z,1048.61
2019-03-10T13:07:21.456Z,1048.96
2019-03-10T13:08:21.534Z,1049.66
2019-03-10T13:09:21.429Z,1050.98
2019-03-10T13:10:22.985Z,1051.28
2019-03-10T13:11:21.472Z,1052.07
2019-03-10T13:12:21.479Z,1052.59
2019-03-10T13:13:21.487Z,1052.86
2019-03-10T13:14:21.478Z,1052.57
2019-03-10T13:15:21.423Z,1052.62
2019-03-10T13:16:21.468Z,1052.96
2019-03-10T13:17:21.459Z,1053.12
2019-03-10T13:18:21.546Z,1053.03
2019-03-10T13:19:21.535Z,1053.72
2019-03-10T13:20:28.006Z,1053.89
2019-03-10T13:21:21.448Z,1054
2019-03-10T13:22:21.548Z,1054.32
2019-03-10T13:23:21.650Z,1055.71
2019-03-10T13:24:21.502Z,1057.25
2019-03-10T13:25:21.548Z,1060.58